Canaveral Air Station, Florida
Current Conditions -  °F | °C
As of 10:58 PM on Saturday 25 Oct 2014 (Local Time) from KCOF Reporting Station
Clear Clear  
Wind Chill: 71°   Ceiling: Unl
Heat Index: 71°   Visibility: 10mi
Dew Point: 63°   Wind: 10mph
Humidity: 75%   Direction: 340°NNW
Pressure: 29.99"   Gusts: NA
Location:  28.2343°N, 80.6078°W
Report Text: KCOF 260258Z AUTO 34009KT 10SM CLR 22/17 A2999 RMK AO2 SLP160 T02180171 52011
Loading
Personal Weather Stations






























Interactive Weather Map
Tropical Storm Tracking
New forecast layout! Learn more

10-Day Weather Forecast

Advertisements
Track Severe Weather on mobile